sensor_id;sensor_type;location;lat;lon;timestamp;pressure;altitude;pressure_sealevel;temperature;humidity
60725;BME280;59881;36.722;-4.462;2022-11-20T09:15:06;101377.13;;;36.80;16.05
60725;BME280;59881;36.722;-4.462;2022-11-20T09:17:32;101755.00;;;39.82;14.56
60725;BME280;59881;36.722;-4.462;2022-11-20T09:19:57;101810.53;;;40.58;14.96
60725;BME280;59881;36.722;-4.462;2022-11-20T09:22:23;101811.09;;;40.60;14.55
60725;BME280;59881;36.722;-4.462;2022-11-20T09:24:49;101804.72;;;40.95;14.07
60725;BME280;59881;36.722;-4.462;2022-11-20T09:27:14;101720.28;;;41.33;13.74
60725;BME280;59881;36.722;-4.462;2022-11-20T09:29:44;101807.91;;;42.67;13.24
60725;BME280;59881;36.722;-4.462;2022-11-20T09:32:10;101812.47;;;43.54;12.07
60725;BME280;59881;36.722;-4.462;2022-11-20T09:34:35;101785.25;;;43.94;12.26
60725;BME280;59881;36.722;-4.462;2022-11-20T09:37:01;101677.06;;;43.56;11.68
60725;BME280;59881;36.722;-4.462;2022-11-20T09:39:26;101793.28;;;44.47;11.20
60725;BME280;59881;36.722;-4.462;2022-11-20T09:45:18;101799.19;;;44.59;11.03
60725;BME280;59881;36.722;-4.462;2022-11-20T09:47:58;101804.72;;;43.51;11.68
60725;BME280;59881;36.722;-4.462;2022-11-20T09:55:48;101769.53;;;46.11;10.01
60725;BME280;59881;36.722;-4.462;2022-11-20T09:58:41;101798.03;;;47.59;9.31
60725;BME280;59881;36.722;-4.462;2022-11-20T10:01:16;101804.69;;;47.32;10.29
60725;BME280;59881;36.722;-4.462;2022-11-20T10:03:50;101798.78;;;46.84;10.21
60725;BME280;59881;36.722;-4.462;2022-11-20T10:06:22;101814.59;;;46.98;9.91
60725;BME280;59881;36.722;-4.462;2022-11-20T10:25:00;101811.28;;;43.60;11.29
60725;BME280;59881;36.722;-4.462;2022-11-20T10:30:23;101511.47;;;39.15;12.92
60725;BME280;59881;36.722;-4.462;2022-11-20T10:33:19;101883.66;;;40.19;13.59
60725;BME280;59881;36.722;-4.462;2022-11-20T10:36:05;101725.25;;;40.00;13.18
60725;BME280;59881;36.722;-4.462;2022-11-20T10:38:49;101799.19;;;39.29;14.06
60725;BME280;59881;36.722;-4.462;2022-11-20T10:41:24;101797.88;;;36.93;16.02
60725;BME280;59881;36.722;-4.462;2022-11-20T10:44:15;101782.09;;;30.73;21.16
60725;BME280;59881;36.722;-4.462;2022-11-20T10:47:01;101708.75;;;26.01;25.62
60725;BME280;59881;36.722;-4.462;2022-11-20T10:49:27;101343.16;;;22.24;28.25
60725;BME280;59881;36.722;-4.462;2022-11-20T11:00:09;101741.03;;;21.16;33.89
60725;BME280;59881;36.722;-4.462;2022-11-20T11:02:54;101751.38;;;20.13;34.32
60725;BME280;59881;36.722;-4.462;2022-11-20T11:07:55;101872.06;;;20.70;36.07
60725;BME280;59881;36.722;-4.462;2022-11-20T11:12:58;101825.19;;;20.25;37.36
60725;BME280;59881;36.722;-4.462;2022-11-20T11:17:52;101653.97;;;19.06;38.14
60725;BME280;59881;36.722;-4.462;2022-11-20T11:20:20;101746.41;;;19.49;37.70
60725;BME280;59881;36.722;-4.462;2022-11-20T11:22:57;101728.50;;;19.09;38.47
60725;BME280;59881;36.722;-4.462;2022-11-20T11:27:53;101947.75;;;19.38;38.59
60725;BME280;59881;36.722;-4.462;2022-11-20T11:30:21;101571.25;;;17.79;39.11
60725;BME280;59881;36.722;-4.462;2022-11-20T11:32:47;101125.34;;;14.93;39.25
60725;BME280;59881;36.722;-4.462;2022-11-20T11:35:22;101823.03;;;19.17;39.16
60725;BME280;59881;36.722;-4.462;2022-11-20T11:37:48;101142.94;;;15.05;39.27
60725;BME280;59881;36.722;-4.462;2022-11-20T11:40:15;101541.34;;;17.44;38.93
60725;BME280;59881;36.722;-4.462;2022-11-20T11:42:59;101819.81;;;19.23;38.65
60725;BME280;59881;36.722;-4.462;2022-11-20T11:45:26;101265.44;;;16.02;39.00
60725;BME280;59881;36.722;-4.462;2022-11-20T11:47:54;101775.91;;;19.16;39.01
60725;BME280;59881;36.722;-4.462;2022-11-20T11:50:26;101805.53;;;19.34;39.46
60725;BME280;59881;36.722;-4.462;2022-11-20T11:53:14;101804.97;;;19.31;39.77
60725;BME280;59881;36.722;-4.462;2022-11-20T11:56:11;101802.16;;;19.32;40.00
60725;BME280;59881;36.722;-4.462;2022-11-20T12:03:39;101790.91;;;19.29;41.12
60725;BME280;59881;36.722;-4.462;2022-11-20T12:06:17;101782.88;;;19.29;40.79
60725;BME280;59881;36.722;-4.462;2022-11-20T12:08:51;101779.94;;;19.32;40.57
60725;BME280;59881;36.722;-4.462;2022-11-20T12:11:40;101772.09;;;19.40;40.04
60725;BME280;59881;36.722;-4.462;2022-11-20T12:14:20;101438.75;;;16.96;39.94
60725;BME280;59881;36.722;-4.462;2022-11-20T12:16:50;101757.09;;;19.49;39.30
60725;BME280;59881;36.722;-4.462;2022-11-20T12:19:16;101562.00;;;18.37;39.27
60725;BME280;59881;36.722;-4.462;2022-11-20T12:24:24;101762.59;;;19.57;39.08
60725;BME280;59881;36.722;-4.462;2022-11-20T12:30:03;101743.47;;;19.61;39.33
60725;BME280;59881;36.722;-4.462;2022-11-20T12:41:21;101725.94;;;19.69;39.86
60725;BME280;59881;36.722;-4.462;2022-11-20T12:44:25;101832.88;;;19.69;39.95
60725;BME280;59881;36.722;-4.462;2022-11-20T12:53:23;101696.41;;;19.70;39.85
60725;BME280;59881;36.722;-4.462;2022-11-20T12:55:59;101690.63;;;19.75;40.03
60725;BME280;59881;36.722;-4.462;2022-11-20T13:06:52;101580.03;;;19.06;40.35
60725;BME280;59881;36.722;-4.462;2022-11-20T13:09:19;101687.88;;;19.86;39.99
60725;BME280;59881;36.722;-4.462;2022-11-20T13:12:06;101680.56;;;19.88;39.79
60725;BME280;59881;36.722;-4.462;2022-11-20T13:17:36;101675.34;;;19.96;39.60
60725;BME280;59881;36.722;-4.462;2022-11-20T13:20:06;101609.16;;;19.59;39.06
60725;BME280;59881;36.722;-4.462;2022-11-20T13:22:52;101155.63;;;16.87;38.85
60725;BME280;59881;36.722;-4.462;2022-11-20T13:27:56;101631.56;;;19.88;39.10
60725;BME280;59881;36.722;-4.462;2022-11-20T13:30:26;101652.84;;;20.09;39.48
60725;BME280;59881;36.722;-4.462;2022-11-20T13:38:12;101211.88;;;17.34;38.64
60725;BME280;59881;36.722;-4.462;2022-11-20T13:41:01;101650.00;;;20.00;39.68
60725;BME280;59881;36.722;-4.462;2022-11-20T13:43:49;101604.66;;;19.70;39.32
60725;BME280;59881;36.722;-4.462;2022-11-20T13:46:15;100745.84;;;14.41;39.27
60725;BME280;59881;36.722;-4.462;2022-11-20T13:48:43;101757.84;;;20.01;39.45
60725;BME280;59881;36.722;-4.462;2022-11-20T13:51:17;101649.88;;;20.02;39.37
60725;BME280;59881;36.722;-4.462;2022-11-20T13:56:53;101634.97;;;19.99;39.34
60725;BME280;59881;36.722;-4.462;2022-11-20T14:02:00;101180.03;;;17.23;39.29
60725;BME280;59881;36.722;-4.462;2022-11-20T14:04:33;101593.59;;;19.84;39.19
60725;BME280;59881;36.722;-4.462;2022-11-20T14:07:00;101627.47;;;20.03;39.57
60725;BME280;59881;36.722;-4.462;2022-11-20T14:09:31;101622.56;;;20.08;39.37
60725;BME280;59881;36.722;-4.462;2022-11-20T14:11:57;101566.13;;;19.72;39.44
60725;BME280;59881;36.722;-4.462;2022-11-20T14:14:28;101560.19;;;19.69;39.53
60725;BME280;59881;36.722;-4.462;2022-11-20T14:17:17;101593.13;;;19.98;39.79
60725;BME280;59881;36.722;-4.462;2022-11-20T14:19:45;101214.41;;;17.67;39.69
60725;BME280;59881;36.722;-4.462;2022-11-20T14:22:26;100804.91;;;15.29;39.82
60725;BME280;59881;36.722;-4.462;2022-11-20T14:27:27;101605.09;;;20.14;39.56
60725;BME280;59881;36.722;-4.462;2022-11-20T14:29:52;101487.59;;;19.54;39.65
60725;BME280;59881;36.722;-4.462;2022-11-20T14:32:20;101506.47;;;19.62;39.99
60725;BME280;59881;36.722;-4.462;2022-11-20T14:34:49;101688.44;;;20.09;39.62
60725;BME280;59881;36.722;-4.462;2022-11-20T14:37:24;101591.31;;;20.09;40.24
60725;BME280;59881;36.722;-4.462;2022-11-20T14:39:55;101647.03;;;19.74;40.23
60725;BME280;59881;36.722;-4.462;2022-11-20T14:42:26;101694.09;;;20.06;40.09
60725;BME280;59881;36.722;-4.462;2022-11-20T14:44:55;101593.16;;;20.08;40.12
60725;BME280;59881;36.722;-4.462;2022-11-20T14:47:23;101381.25;;;18.70;40.27
60725;BME280;59881;36.722;-4.462;2022-11-20T14:49:51;101590.31;;;20.10;40.44
60725;BME280;59881;36.722;-4.462;2022-11-20T14:52:19;101285.41;;;18.28;40.70
60725;BME280;59881;36.722;-4.462;2022-11-20T14:54:50;101587.09;;;20.06;40.60
60725;BME280;59881;36.722;-4.462;2022-11-20T14:57:25;101582.84;;;20.03;40.64
60725;BME280;59881;36.722;-4.462;2022-11-20T14:59:51;101545.31;;;19.76;40.88
60725;BME280;59881;36.722;-4.462;2022-11-20T15:02:29;101623.56;;;19.97;40.88
60725;BME280;59881;36.722;-4.462;2022-11-20T15:04:59;101585.41;;;19.95;41.00
60725;BME280;59881;36.722;-4.462;2022-11-20T15:13:01;101585.13;;;19.89;41.45
60725;BME280;59881;36.722;-4.462;2022-11-20T15:18:19;101559.31;;;19.68;41.94
60725;BME280;59881;36.722;-4.462;2022-11-20T15:20:45;101767.31;;;19.43;41.59
60725;BME280;59881;36.722;-4.462;2022-11-20T15:23:13;101600.19;;;19.80;41.54
60725;BME280;59881;36.722;-4.462;2022-11-20T15:25:40;101568.78;;;19.53;41.70
60725;BME280;59881;36.722;-4.462;2022-11-20T15:28:16;101619.59;;;19.72;41.94
60725;BME280;59881;36.722;-4.462;2022-11-20T15:30:42;101340.94;;;18.13;41.96
60725;BME280;59881;36.722;-4.462;2022-11-20T15:33:08;100624.06;;;13.75;42.05
60725;BME280;59881;36.722;-4.462;2022-11-20T15:35:35;101651.22;;;19.67;42.09
60725;BME280;59881;36.722;-4.462;2022-11-20T15:38:00;100824.16;;;14.89;41.86
60725;BME280;59881;36.722;-4.462;2022-11-20T15:40:26;101094.03;;;16.50;41.93
60725;BME280;59881;36.722;-4.462;2022-11-20T15:42:51;101109.06;;;16.40;42.43
60725;BME280;59881;36.722;-4.462;2022-11-20T15:45:51;101083.88;;;16.34;42.62
60725;BME280;59881;36.722;-4.462;2022-11-20T15:48:24;101619.25;;;19.56;42.15
60725;BME280;59881;36.722;-4.462;2022-11-20T15:53:29;101627.69;;;19.51;42.47
60725;BME280;59881;36.722;-4.462;2022-11-20T15:55:54;101135.66;;;16.40;42.39
60725;BME280;59881;36.722;-4.462;2022-11-20T15:58:20;101278.75;;;17.31;42.49
60725;BME280;59881;36.722;-4.462;2022-11-20T16:00:48;101590.41;;;18.38;42.44
60725;BME280;59881;36.722;-4.462;2022-11-20T16:03:15;101640.47;;;19.38;42.83
60725;BME280;59881;36.722;-4.462;2022-11-20T16:05:41;101309.09;;;17.29;42.78
60725;BME280;59881;36.722;-4.462;2022-11-20T16:08:07;101384.84;;;17.78;43.17
60725;BME280;59881;36.722;-4.462;2022-11-20T16:10:32;101633.09;;;19.20;43.29
60725;BME280;59881;36.722;-4.462;2022-11-20T16:12:58;101736.84;;;19.15;42.85
60725;BME280;59881;36.722;-4.462;2022-11-20T16:15:50;101525.56;;;18.47;43.42
60725;BME280;59881;36.722;-4.462;2022-11-20T16:18:20;101087.16;;;15.73;43.27
60725;BME280;59881;36.722;-4.462;2022-11-20T16:20:51;101683.19;;;18.55;43.26
60725;BME280;59881;36.722;-4.462;2022-11-20T16:23:17;101183.75;;;16.16;43.43
60725;BME280;59881;36.722;-4.462;2022-11-20T16:25:43;101650.66;;;18.83;43.46
60725;BME280;59881;36.722;-4.462;2022-11-20T16:28:10;101553.75;;;18.19;43.78
60725;BME280;59881;36.722;-4.462;2022-11-20T16:30:36;101656.56;;;18.65;43.93
60725;BME280;59881;36.722;-4.462;2022-11-20T16:33:02;101657.06;;;18.59;44.17
60725;BME280;59881;36.722;-4.462;2022-11-20T16:35:31;100922.69;;;14.05;44.29
60725;BME280;59881;36.722;-4.462;2022-11-20T16:37:57;101684.81;;;18.47;44.52
60725;BME280;59881;36.722;-4.462;2022-11-20T16:40:24;101541.53;;;17.63;44.71
60725;BME280;59881;36.722;-4.462;2022-11-20T16:42:50;101366.03;;;16.52;45.03
60725;BME280;59881;36.722;-4.462;2022-11-20T16:45:16;101583.66;;;17.26;45.16
60725;BME280;59881;36.722;-4.462;2022-11-20T16:47:42;101323.28;;;16.21;45.42
60725;BME280;59881;36.722;-4.462;2022-11-20T16:50:08;101651.00;;;18.15;45.61
60725;BME280;59881;36.722;-4.462;2022-11-20T16:52:33;101610.03;;;17.84;45.95
60725;BME280;59881;36.722;-4.462;2022-11-20T16:54:59;101708.25;;;17.99;46.23
60725;BME280;59881;36.722;-4.462;2022-11-20T16:57:27;101649.25;;;17.93;46.32
60725;BME280;59881;36.722;-4.462;2022-11-20T16:59:54;101651.72;;;17.85;46.67
60725;BME280;59881;36.722;-4.462;2022-11-20T17:02:19;101272.66;;;15.10;46.77
60725;BME280;59881;36.722;-4.462;2022-11-20T17:04:45;101652.34;;;17.66;47.15
60725;BME280;59881;36.722;-4.462;2022-11-20T17:07:10;101672.34;;;17.60;47.30
60725;BME280;59881;36.722;-4.462;2022-11-20T17:09:37;101680.94;;;17.52;47.71
60725;BME280;59881;36.722;-4.462;2022-11-20T17:12:03;101685.47;;;17.41;47.99
60725;BME280;59881;36.722;-4.462;2022-11-20T17:14:28;101687.16;;;17.30;48.17
60725;BME280;59881;36.722;-4.462;2022-11-20T17:16:54;101156.44;;;13.85;48.48
60725;BME280;59881;36.722;-4.462;2022-11-20T17:19:19;101170.09;;;13.16;48.47
60725;BME280;59881;36.722;-4.462;2022-11-20T17:21:45;101700.81;;;16.92;49.02
60725;BME280;59881;36.722;-4.462;2022-11-20T17:24:12;101656.53;;;16.55;49.39
60725;BME280;59881;36.722;-4.462;2022-11-20T17:26:39;101706.66;;;16.73;50.20
60725;BME280;59881;36.722;-4.462;2022-11-20T17:29:07;101706.66;;;16.73;50.58
60725;BME280;59881;36.722;-4.462;2022-11-20T17:31:35;101668.25;;;16.42;50.37
60725;BME280;59881;36.722;-4.462;2022-11-20T17:34:03;101695.25;;;16.60;50.28
60725;BME280;59881;36.722;-4.462;2022-11-20T17:36:30;101687.13;;;16.50;50.78
60725;BME280;59881;36.722;-4.462;2022-11-20T17:38:56;101687.25;;;16.48;51.06
60725;BME280;59881;36.722;-4.462;2022-11-20T17:41:24;101692.91;;;16.44;51.53
60725;BME280;59881;36.722;-4.462;2022-11-20T17:43:52;101689.75;;;16.39;51.81
60725;BME280;59881;36.722;-4.462;2022-11-20T17:46:21;101703.41;;;16.34;51.80
60725;BME280;59881;36.722;-4.462;2022-11-20T17:48:48;101877.53;;;16.28;51.98
60725;BME280;59881;36.722;-4.462;2022-11-20T17:51:19;101761.25;;;16.06;52.01
60725;BME280;59881;36.722;-4.462;2022-11-20T17:53:48;101731.97;;;16.19;52.64
60725;BME280;59881;36.722;-4.462;2022-11-20T17:56:14;101818.22;;;16.15;52.48
60725;BME280;59881;36.722;-4.462;2022-11-20T17:58:59;101648.69;;;15.83;52.86
60725;BME280;59881;36.722;-4.462;2022-11-20T18:01:25;101687.66;;;16.07;53.17
60725;BME280;59881;36.722;-4.462;2022-11-20T18:03:50;101243.25;;;13.43;53.36
60725;BME280;59881;36.722;-4.462;2022-11-20T18:06:18;101683.63;;;16.14;53.40
60725;BME280;59881;36.722;-4.462;2022-11-20T18:08:45;101190.84;;;13.22;53.03
60725;BME280;59881;36.722;-4.462;2022-11-20T18:11:15;101674.91;;;16.12;53.28
60725;BME280;59881;36.722;-4.462;2022-11-20T18:13:42;101669.69;;;16.10;53.14
60725;BME280;59881;36.722;-4.462;2022-11-20T18:16:28;101693.13;;;16.05;53.32
60725;BME280;59881;36.722;-4.462;2022-11-20T18:18:55;101688.75;;;16.04;53.30
60725;BME280;59881;36.722;-4.462;2022-11-20T18:21:22;101656.66;;;15.83;53.48
60725;BME280;59881;36.722;-4.462;2022-11-20T18:23:48;101697.81;;;16.02;53.31
60725;BME280;59881;36.722;-4.462;2022-11-20T18:26:14;101218.16;;;12.97;53.12
60725;BME280;59881;36.722;-4.462;2022-11-20T18:28:40;101588.53;;;15.21;53.34
60725;BME280;59881;36.722;-4.462;2022-11-20T18:31:07;101643.13;;;15.49;53.34
60725;BME280;59881;36.722;-4.462;2022-11-20T18:33:33;101634.34;;;15.36;53.41
60725;BME280;59881;36.722;-4.462;2022-11-20T18:36:15;101663.84;;;15.44;53.42
60725;BME280;59881;36.722;-4.462;2022-11-20T18:38:43;101738.72;;;15.75;53.07
60725;BME280;59881;36.722;-4.462;2022-11-20T18:41:18;101729.56;;;15.66;53.99
60725;BME280;59881;36.722;-4.462;2022-11-20T18:44:04;101726.59;;;15.58;54.28
60725;BME280;59881;36.722;-4.462;2022-11-20T18:46:48;101348.03;;;12.66;54.83
60725;BME280;59881;36.722;-4.462;2022-11-20T18:49:14;101689.81;;;15.28;55.24
60725;BME280;59881;36.722;-4.462;2022-11-20T18:51:40;101735.22;;;15.49;55.34
60725;BME280;59881;36.722;-4.462;2022-11-20T18:54:08;101727.69;;;15.43;55.11
60725;BME280;59881;36.722;-4.462;2022-11-20T18:56:34;101555.78;;;14.33;55.49
60725;BME280;59881;36.722;-4.462;2022-11-20T18:59:04;101734.38;;;15.36;55.46
60725;BME280;59881;36.722;-4.462;2022-11-20T19:01:29;101507.31;;;13.92;55.55
60725;BME280;59881;36.722;-4.462;2022-11-20T19:03:55;101260.75;;;12.40;55.59
60725;BME280;59881;36.722;-4.462;2022-11-20T19:06:21;101691.19;;;14.95;55.97
60725;BME280;59881;36.722;-4.462;2022-11-20T19:08:47;101695.66;;;14.95;56.36
60725;BME280;59881;36.722;-4.462;2022-11-20T19:11:12;101743.53;;;15.19;56.58
60725;BME280;59881;36.722;-4.462;2022-11-20T19:13:39;101743.41;;;15.20;56.75
60725;BME280;59881;36.722;-4.462;2022-11-20T19:16:13;101280.91;;;12.41;56.72
60725;BME280;59881;36.722;-4.462;2022-11-20T19:18:39;101735.78;;;15.16;57.10
60725;BME280;59881;36.722;-4.462;2022-11-20T19:21:16;101711.47;;;14.96;57.22
60725;BME280;59881;36.722;-4.462;2022-11-20T19:23:42;101700.09;;;14.68;57.06
60725;BME280;59881;36.722;-4.462;2022-11-20T19:26:08;101729.53;;;15.04;56.77
60725;BME280;59881;36.722;-4.462;2022-11-20T19:28:36;101730.47;;;15.03;57.59
60725;BME280;59881;36.722;-4.462;2022-11-20T19:31:16;101726.13;;;15.02;56.91
60725;BME280;59881;36.722;-4.462;2022-11-20T19:33:42;101667.34;;;14.42;57.41
60725;BME280;59881;36.722;-4.462;2022-11-20T19:38:42;101577.75;;;13.95;57.83
60725;BME280;59881;36.722;-4.462;2022-11-20T19:41:08;101757.44;;;14.97;58.33
60725;BME280;59881;36.722;-4.462;2022-11-20T19:43:34;101685.69;;;14.45;58.80
60725;BME280;59881;36.722;-4.462;2022-11-20T19:46:00;101729.47;;;14.65;59.08
60725;BME280;59881;36.722;-4.462;2022-11-20T19:48:34;101840.94;;;14.91;59.16
60725;BME280;59881;36.722;-4.462;2022-11-20T19:51:17;101789.88;;;14.87;59.99
60725;BME280;59881;36.722;-4.462;2022-11-20T19:53:43;101771.53;;;14.84;60.30
60725;BME280;59881;36.722;-4.462;2022-11-20T19:56:09;101731.66;;;14.59;60.64
60725;BME280;59881;36.722;-4.462;2022-11-20T19:58:35;101777.78;;;14.83;60.78
60725;BME280;59881;36.722;-4.462;2022-11-20T20:01:06;101305.81;;;11.95;60.87
60725;BME280;59881;36.722;-4.462;2022-11-20T20:03:32;101396.59;;;12.50;61.25
60725;BME280;59881;36.722;-4.462;2022-11-20T20:06:02;101778.94;;;14.79;61.30
60725;BME280;59881;36.722;-4.462;2022-11-20T20:08:28;101596.31;;;13.68;61.42
60725;BME280;59881;36.722;-4.462;2022-11-20T20:10:54;101751.28;;;14.56;61.61
60725;BME280;59881;36.722;-4.462;2022-11-20T20:13:19;101803.19;;;14.19;61.66
60725;BME280;59881;36.722;-4.462;2022-11-20T20:15:45;101669.16;;;14.02;62.11
60725;BME280;59881;36.722;-4.462;2022-11-20T20:18:10;101328.59;;;11.82;62.09
60725;BME280;59881;36.722;-4.462;2022-11-20T20:20:36;101804.28;;;14.71;62.32
60725;BME280;59881;36.722;-4.462;2022-11-20T20:23:01;101804.38;;;14.69;62.67
60725;BME280;59881;36.722;-4.462;2022-11-20T20:25:31;101800.97;;;14.67;62.78
60725;BME280;59881;36.722;-4.462;2022-11-20T20:27:56;101808.19;;;14.65;63.03
60725;BME280;59881;36.722;-4.462;2022-11-20T20:30:22;101810.84;;;14.65;63.20
60725;BME280;59881;36.722;-4.462;2022-11-20T20:32:47;101809.16;;;14.64;63.45
60725;BME280;59881;36.722;-4.462;2022-11-20T20:35:13;101904.72;;;14.62;63.58
60725;BME280;59881;36.722;-4.462;2022-11-20T20:37:38;101810.19;;;14.61;63.82
60725;BME280;59881;36.722;-4.462;2022-11-20T20:40:04;101600.19;;;13.35;63.77
60725;BME280;59881;36.722;-4.462;2022-11-20T20:42:30;101670.16;;;13.72;63.88
60725;BME280;59881;36.722;-4.462;2022-11-20T20:44:58;101997.53;;;14.62;64.08
60725;BME280;59881;36.722;-4.462;2022-11-20T20:47:31;101926.88;;;14.61;64.09
60725;BME280;59881;36.722;-4.462;2022-11-20T20:49:56;101818.34;;;14.58;63.93
60725;BME280;59881;36.722;-4.462;2022-11-20T20:52:22;101812.28;;;14.56;64.01
60725;BME280;59881;36.722;-4.462;2022-11-20T20:54:52;101808.78;;;14.56;63.94
60725;BME280;59881;36.722;-4.462;2022-11-20T20:57:17;101812.41;;;14.55;64.18
60725;BME280;59881;36.722;-4.462;2022-11-20T20:59:43;101683.25;;;13.75;64.18
60725;BME280;59881;36.722;-4.462;2022-11-20T21:02:09;101347.78;;;11.71;64.11
60725;BME280;59881;36.722;-4.462;2022-11-20T21:04:35;101913.25;;;14.24;64.09
60725;BME280;59881;36.722;-4.462;2022-11-20T21:07:00;101432.09;;;12.17;64.21
60725;BME280;59881;36.722;-4.462;2022-11-20T21:09:26;101692.13;;;13.74;64.69
60725;BME280;59881;36.722;-4.462;2022-11-20T21:11:51;101628.75;;;13.30;64.67
60725;BME280;59881;36.722;-4.462;2022-11-20T21:14:17;101814.06;;;13.73;64.87
60725;BME280;59881;36.722;-4.462;2022-11-20T21:16:42;101642.84;;;13.30;64.74
60725;BME280;59881;36.722;-4.462;2022-11-20T21:19:11;101827.78;;;14.35;65.00
60725;BME280;59881;36.722;-4.462;2022-11-20T21:21:37;102057.81;;;14.30;65.08
60725;BME280;59881;36.722;-4.462;2022-11-20T21:24:21;101828.44;;;14.24;64.99
60725;BME280;59881;36.722;-4.462;2022-11-20T21:26:47;101755.78;;;13.73;65.56
60725;BME280;59881;36.722;-4.462;2022-11-20T21:29:14;101479.03;;;11.37;65.35
60725;BME280;59881;36.722;-4.462;2022-11-20T21:31:40;101846.91;;;14.26;65.64
60725;BME280;59881;36.722;-4.462;2022-11-20T21:34:05;101823.84;;;14.14;65.59
60725;BME280;59881;36.722;-4.462;2022-11-20T21:36:35;101874.25;;;14.26;65.88
60725;BME280;59881;36.722;-4.462;2022-11-20T21:39:01;101720.69;;;13.55;65.82
60725;BME280;59881;36.722;-4.462;2022-11-20T21:41:28;101832.91;;;14.24;65.80
60725;BME280;59881;36.722;-4.462;2022-11-20T21:43:55;101828.53;;;14.23;65.67
60725;BME280;59881;36.722;-4.462;2022-11-20T21:46:21;101286.41;;;10.94;65.44
60725;BME280;59881;36.722;-4.462;2022-11-20T21:48:47;101819.84;;;14.21;65.66
60725;BME280;59881;36.722;-4.462;2022-11-20T21:51:18;101250.66;;;10.74;65.48
60725;BME280;59881;36.722;-4.462;2022-11-20T21:53:45;101095.53;;;9.78;65.73
60725;BME280;59881;36.722;-4.462;2022-11-20T21:56:13;101821.09;;;14.15;66.06
60725;BME280;59881;36.722;-4.462;2022-11-20T21:58:40;101814.28;;;14.11;65.93
60725;BME280;59881;36.722;-4.462;2022-11-20T22:03:53;101775.34;;;13.84;66.09
60725;BME280;59881;36.722;-4.462;2022-11-20T22:06:21;101345.13;;;11.27;66.15
60725;BME280;59881;36.722;-4.462;2022-11-20T22:08:47;101807.38;;;14.08;66.28
60725;BME280;59881;36.722;-4.462;2022-11-20T22:11:16;101889.69;;;14.05;66.09
60725;BME280;59881;36.722;-4.462;2022-11-20T22:13:42;101805.88;;;14.04;66.25
60725;BME280;59881;36.722;-4.462;2022-11-20T22:16:27;101631.75;;;12.95;66.16
60725;BME280;59881;36.722;-4.462;2022-11-20T22:18:54;101749.34;;;13.62;66.04
60725;BME280;59881;36.722;-4.462;2022-11-20T22:21:22;101767.97;;;13.75;66.14
60725;BME280;59881;36.722;-4.462;2022-11-20T22:23:49;101809.19;;;13.94;66.37
60725;BME280;59881;36.722;-4.462;2022-11-20T22:26:17;101798.91;;;13.89;66.18
60725;BME280;59881;36.722;-4.462;2022-11-20T22:28:49;101803.53;;;13.85;66.29
60725;BME280;59881;36.722;-4.462;2022-11-20T22:31:16;101705.59;;;13.28;66.36
60725;BME280;59881;36.722;-4.462;2022-11-20T22:33:42;101787.91;;;13.81;66.42
60725;BME280;59881;36.722;-4.462;2022-11-20T22:36:09;101784.50;;;13.79;66.56
60725;BME280;59881;36.722;-4.462;2022-11-20T22:38:36;101766.94;;;13.63;66.98
60725;BME280;59881;36.722;-4.462;2022-11-20T22:43:41;101787.84;;;13.82;66.86
60725;BME280;59881;36.722;-4.462;2022-11-20T22:46:16;101311.72;;;10.97;66.88
60725;BME280;59881;36.722;-4.462;2022-11-20T22:48:48;101780.56;;;13.86;67.01
60725;BME280;59881;36.722;-4.462;2022-11-20T22:51:14;101721.00;;;13.50;66.91
60725;BME280;59881;36.722;-4.462;2022-11-20T22:53:42;101776.84;;;13.89;67.05
60725;BME280;59881;36.722;-4.462;2022-11-20T22:56:09;101770.50;;;13.91;67.22
60725;BME280;59881;36.722;-4.462;2022-11-20T22:58:38;101764.38;;;13.91;67.09
60725;BME280;59881;36.722;-4.462;2022-11-20T23:03:48;101764.38;;;13.91;67.36
60725;BME280;59881;36.722;-4.462;2022-11-20T23:06:15;101841.09;;;13.78;67.55
60725;BME280;59881;36.722;-4.462;2022-11-20T23:08:42;101768.31;;;13.98;67.54
60725;BME280;59881;36.722;-4.462;2022-11-20T23:11:13;101383.00;;;11.70;67.33
60725;BME280;59881;36.722;-4.462;2022-11-20T23:13:39;101358.97;;;11.60;67.50
60725;BME280;59881;36.722;-4.462;2022-11-20T23:16:17;101763.38;;;14.06;67.79
60725;BME280;59881;36.722;-4.462;2022-11-20T23:18:44;101682.91;;;13.53;67.41
60725;BME280;59881;36.722;-4.462;2022-11-20T23:21:13;101307.91;;;11.17;67.43
60725;BME280;59881;36.722;-4.462;2022-11-20T23:23:39;101736.19;;;13.75;67.93
60725;BME280;59881;36.722;-4.462;2022-11-20T23:26:10;101869.28;;;13.93;68.40
60725;BME280;59881;36.722;-4.462;2022-11-20T23:28:38;101750.81;;;13.95;68.35
60725;BME280;59881;36.722;-4.462;2022-11-20T23:31:04;101754.13;;;13.99;68.43
60725;BME280;59881;36.722;-4.462;2022-11-20T23:33:30;101713.97;;;13.78;68.38
60725;BME280;59881;36.722;-4.462;2022-11-20T23:35:56;101183.13;;;10.57;68.30
60725;BME280;59881;36.722;-4.462;2022-11-20T23:38:22;101593.16;;;13.07;68.46
60725;BME280;59881;36.722;-4.462;2022-11-20T23:40:48;101771.28;;;13.64;68.53
60725;BME280;59881;36.722;-4.462;2022-11-20T23:43:15;101735.47;;;14.00;68.69
60725;BME280;59881;36.722;-4.462;2022-11-20T23:45:45;101701.28;;;13.83;68.76
60725;BME280;59881;36.722;-4.462;2022-11-20T23:48:12;101728.59;;;13.98;68.71
60725;BME280;59881;36.722;-4.462;2022-11-20T23:50:37;101336.91;;;11.62;68.83
60725;BME280;59881;36.722;-4.462;2022-11-20T23:53:04;101729.13;;;14.03;69.08
60725;BME280;59881;36.722;-4.462;2022-11-20T23:55:30;101695.69;;;13.87;69.02
60725;BME280;59881;36.722;-4.462;2022-11-20T23:57:56;101297.13;;;11.50;68.86
